sensor_id;sensor_type;location;lat;lon;timestamp;temperature;humidity
6940;DHT22;3509;48.510;9.076;2022-08-20T00:00:34;17.90;99.90
6940;DHT22;3509;48.510;9.076;2022-08-20T00:03:28;17.80;99.90
6940;DHT22;3509;48.510;9.076;2022-08-20T00:06:14;17.70;99.90
6940;DHT22;3509;48.510;9.076;2022-08-20T00:08:41;17.50;99.90
6940;DHT22;3509;48.510;9.076;2022-08-20T00:11:10;17.40;99.90
6940;DHT22;3509;48.510;9.076;2022-08-20T00:13:40;17.30;99.90
6940;DHT22;3509;48.510;9.076;2022-08-20T00:16:06;17.20;99.90
6940;DHT22;3509;48.510;9.076;2022-08-20T00:18:33;17.10;99.90
6940;DHT22;3509;48.510;9.076;2022-08-20T00:21:04;17.00;99.90
6940;DHT22;3509;48.510;9.076;2022-08-20T00:23:31;16.90;99.90
6940;DHT22;3509;48.510;9.076;2022-08-20T00:25:56;16.80;99.90
6940;DHT22;3509;48.510;9.076;2022-08-20T00:28:22;16.70;99.90
6940;DHT22;3509;48.510;9.076;2022-08-20T00:30:48;16.60;99.90
6940;DHT22;3509;48.510;9.076;2022-08-20T00:33:20;16.50;99.90
6940;DHT22;3509;48.510;9.076;2022-08-20T00:35:53;16.50;99.90
6940;DHT22;3509;48.510;9.076;2022-08-20T00:38:21;16.40;99.90
6940;DHT22;3509;48.510;9.076;2022-08-20T00:40:53;16.40;99.90
6940;DHT22;3509;48.510;9.076;2022-08-20T00:43:48;16.30;99.90
6940;DHT22;3509;48.510;9.076;2022-08-20T00:46:21;16.30;99.90
6940;DHT22;3509;48.510;9.076;2022-08-20T00:48:49;16.30;99.90
6940;DHT22;3509;48.510;9.076;2022-08-20T00:51:37;16.30;99.90
6940;DHT22;3509;48.510;9.076;2022-08-20T00:56:32;16.40;99.90
6940;DHT22;3509;48.510;9.076;2022-08-20T00:58:59;16.40;99.90
6940;DHT22;3509;48.510;9.076;2022-08-20T01:01:25;16.50;99.90
6940;DHT22;3509;48.510;9.076;2022-08-20T01:03:51;16.50;99.90
6940;DHT22;3509;48.510;9.076;2022-08-20T01:06:21;16.60;99.90
6940;DHT22;3509;48.510;9.076;2022-08-20T01:08:47;16.60;99.90
6940;DHT22;3509;48.510;9.076;2022-08-20T01:11:13;16.60;99.90
6940;DHT22;3509;48.510;9.076;2022-08-20T01:13:44;16.60;99.90
6940;DHT22;3509;48.510;9.076;2022-08-20T01:16:18;16.60;99.90
6940;DHT22;3509;48.510;9.076;2022-08-20T01:18:46;16.60;99.90
6940;DHT22;3509;48.510;9.076;2022-08-20T01:21:13;16.60;99.90
6940;DHT22;3509;48.510;9.076;2022-08-20T01:24:36;16.50;99.90
6940;DHT22;3509;48.510;9.076;2022-08-20T01:26:39;16.50;99.90
6940;DHT22;3509;48.510;9.076;2022-08-20T01:29:17;16.40;99.90
6940;DHT22;3509;48.510;9.076;2022-08-20T01:31:44;16.40;99.90
6940;DHT22;3509;48.510;9.076;2022-08-20T01:34:13;16.40;99.90
6940;DHT22;3509;48.510;9.076;2022-08-20T01:36:51;16.40;99.90
6940;DHT22;3509;48.510;9.076;2022-08-20T01:39:40;16.40;99.90
6940;DHT22;3509;48.510;9.076;2022-08-20T01:44:39;16.40;99.90
6940;DHT22;3509;48.510;9.076;2022-08-20T01:47:19;16.40;99.90
6940;DHT22;3509;48.510;9.076;2022-08-20T01:49:51;16.40;99.90
6940;DHT22;3509;48.510;9.076;2022-08-20T01:54:53;16.50;99.90
6940;DHT22;3509;48.510;9.076;2022-08-20T01:57:20;16.60;99.90
6940;DHT22;3509;48.510;9.076;2022-08-20T01:59:49;16.60;99.90
6940;DHT22;3509;48.510;9.076;2022-08-20T02:02:15;16.60;99.90
6940;DHT22;3509;48.510;9.076;2022-08-20T02:04:41;16.60;99.90
6940;DHT22;3509;48.510;9.076;2022-08-20T02:07:12;16.70;99.90
6940;DHT22;3509;48.510;9.076;2022-08-20T02:09:38;16.70;99.90
6940;DHT22;3509;48.510;9.076;2022-08-20T02:12:06;16.70;99.90
6940;DHT22;3509;48.510;9.076;2022-08-20T02:14:34;16.70;99.90
6940;DHT22;3509;48.510;9.076;2022-08-20T02:17:00;16.70;99.90
6940;DHT22;3509;48.510;9.076;2022-08-20T02:19:46;16.70;99.90
6940;DHT22;3509;48.510;9.076;2022-08-20T02:24:45;16.70;99.90
6940;DHT22;3509;48.510;9.076;2022-08-20T02:27:11;16.70;99.90
6940;DHT22;3509;48.510;9.076;2022-08-20T02:29:36;16.60;99.90
6940;DHT22;3509;48.510;9.076;2022-08-20T02:32:03;16.60;99.90
6940;DHT22;3509;48.510;9.076;2022-08-20T02:34:31;16.60;99.90
6940;DHT22;3509;48.510;9.076;2022-08-20T02:36:59;16.50;99.90
6940;DHT22;3509;48.510;9.076;2022-08-20T02:39:25;16.50;99.90
6940;DHT22;3509;48.510;9.076;2022-08-20T02:41:52;16.50;99.90
6940;DHT22;3509;48.510;9.076;2022-08-20T02:44:18;16.60;99.90
6940;DHT22;3509;48.510;9.076;2022-08-20T02:46:47;16.70;99.90
6940;DHT22;3509;48.510;9.076;2022-08-20T02:49:15;16.70;99.90
6940;DHT22;3509;48.510;9.076;2022-08-20T02:51:41;16.70;99.90
6940;DHT22;3509;48.510;9.076;2022-08-20T02:54:07;16.80;99.90
6940;DHT22;3509;48.510;9.076;2022-08-20T02:56:33;16.80;99.90
6940;DHT22;3509;48.510;9.076;2022-08-20T02:58:58;16.80;99.90
6940;DHT22;3509;48.510;9.076;2022-08-20T03:01:24;16.80;99.90
6940;DHT22;3509;48.510;9.076;2022-08-20T03:03:49;16.80;99.90
6940;DHT22;3509;48.510;9.076;2022-08-20T03:06:15;16.80;99.90
6940;DHT22;3509;48.510;9.076;2022-08-20T03:08:42;16.80;99.90
6940;DHT22;3509;48.510;9.076;2022-08-20T03:11:08;16.90;99.90
6940;DHT22;3509;48.510;9.076;2022-08-20T03:13:33;16.90;99.90
6940;DHT22;3509;48.510;9.076;2022-08-20T03:16:01;16.90;99.90
6940;DHT22;3509;48.510;9.076;2022-08-20T03:18:33;16.90;99.90
6940;DHT22;3509;48.510;9.076;2022-08-20T03:20:59;16.90;99.90
6940;DHT22;3509;48.510;9.076;2022-08-20T03:23:25;16.80;99.90
6940;DHT22;3509;48.510;9.076;2022-08-20T03:25:51;16.70;99.90
6940;DHT22;3509;48.510;9.076;2022-08-20T03:28:17;16.70;99.90
6940;DHT22;3509;48.510;9.076;2022-08-20T03:30:44;16.70;99.90
6940;DHT22;3509;48.510;9.076;2022-08-20T03:33:10;16.60;99.90
6940;DHT22;3509;48.510;9.076;2022-08-20T03:35:36;16.60;99.90
6940;DHT22;3509;48.510;9.076;2022-08-20T03:38:06;16.40;99.90
6940;DHT22;3509;48.510;9.076;2022-08-20T03:40:33;16.30;99.90
6940;DHT22;3509;48.510;9.076;2022-08-20T03:42:59;16.20;99.90
6940;DHT22;3509;48.510;9.076;2022-08-20T03:45:26;16.10;99.90
6940;DHT22;3509;48.510;9.076;2022-08-20T03:47:53;16.00;99.90
6940;DHT22;3509;48.510;9.076;2022-08-20T03:50:22;15.90;99.90
6940;DHT22;3509;48.510;9.076;2022-08-20T03:52:49;15.80;99.90
6940;DHT22;3509;48.510;9.076;2022-08-20T03:55:15;15.70;99.90
6940;DHT22;3509;48.510;9.076;2022-08-20T03:57:45;15.70;99.90
6940;DHT22;3509;48.510;9.076;2022-08-20T04:00:13;15.80;99.90
6940;DHT22;3509;48.510;9.076;2022-08-20T04:02:39;15.70;99.90
6940;DHT22;3509;48.510;9.076;2022-08-20T04:05:05;15.80;99.90
6940;DHT22;3509;48.510;9.076;2022-08-20T04:07:31;15.80;99.90
6940;DHT22;3509;48.510;9.076;2022-08-20T04:09:57;15.80;99.90
6940;DHT22;3509;48.510;9.076;2022-08-20T04:12:24;15.90;99.90
6940;DHT22;3509;48.510;9.076;2022-08-20T04:14:51;16.00;99.90
6940;DHT22;3509;48.510;9.076;2022-08-20T04:17:18;16.00;99.90
6940;DHT22;3509;48.510;9.076;2022-08-20T04:19:45;15.90;99.90
6940;DHT22;3509;48.510;9.076;2022-08-20T04:22:11;16.00;99.90
6940;DHT22;3509;48.510;9.076;2022-08-20T04:24:40;16.10;99.90
6940;DHT22;3509;48.510;9.076;2022-08-20T04:27:08;16.10;99.90
6940;DHT22;3509;48.510;9.076;2022-08-20T04:29:35;16.10;99.90
6940;DHT22;3509;48.510;9.076;2022-08-20T04:32:04;16.20;99.90
6940;DHT22;3509;48.510;9.076;2022-08-20T04:34:30;16.20;99.90
6940;DHT22;3509;48.510;9.076;2022-08-20T04:36:56;16.20;99.90
6940;DHT22;3509;48.510;9.076;2022-08-20T04:39:21;16.30;99.90
6940;DHT22;3509;48.510;9.076;2022-08-20T04:41:47;16.30;99.90
6940;DHT22;3509;48.510;9.076;2022-08-20T04:44:13;16.40;99.90
6940;DHT22;3509;48.510;9.076;2022-08-20T04:46:39;16.30;99.90
6940;DHT22;3509;48.510;9.076;2022-08-20T04:49:06;16.40;99.90
6940;DHT22;3509;48.510;9.076;2022-08-20T04:51:32;16.40;99.90
6940;DHT22;3509;48.510;9.076;2022-08-20T04:54:01;16.40;99.90
6940;DHT22;3509;48.510;9.076;2022-08-20T04:56:32;16.40;99.90
6940;DHT22;3509;48.510;9.076;2022-08-20T04:59:05;16.50;99.90
6940;DHT22;3509;48.510;9.076;2022-08-20T05:01:31;16.50;99.90
6940;DHT22;3509;48.510;9.076;2022-08-20T05:03:58;16.50;99.90
6940;DHT22;3509;48.510;9.076;2022-08-20T05:06:27;16.60;99.90
6940;DHT22;3509;48.510;9.076;2022-08-20T05:08:54;16.60;99.90
6940;DHT22;3509;48.510;9.076;2022-08-20T05:11:21;16.60;99.90
6940;DHT22;3509;48.510;9.076;2022-08-20T05:13:47;16.70;99.90
6940;DHT22;3509;48.510;9.076;2022-08-20T05:16:13;16.70;99.90
6940;DHT22;3509;48.510;9.076;2022-08-20T05:18:39;16.70;99.90
6940;DHT22;3509;48.510;9.076;2022-08-20T05:21:05;16.70;99.90
6940;DHT22;3509;48.510;9.076;2022-08-20T05:23:33;16.70;99.90
6940;DHT22;3509;48.510;9.076;2022-08-20T05:25:59;16.70;99.90
6940;DHT22;3509;48.510;9.076;2022-08-20T05:28:26;16.70;99.90
6940;DHT22;3509;48.510;9.076;2022-08-20T05:30:55;16.70;99.90
6940;DHT22;3509;48.510;9.076;2022-08-20T05:33:22;16.80;99.90
6940;DHT22;3509;48.510;9.076;2022-08-20T05:35:50;17.00;99.90
6940;DHT22;3509;48.510;9.076;2022-08-20T05:38:20;17.10;99.90
6940;DHT22;3509;48.510;9.076;2022-08-20T05:40:46;17.40;99.90
6940;DHT22;3509;48.510;9.076;2022-08-20T05:43:13;17.60;99.90
6940;DHT22;3509;48.510;9.076;2022-08-20T05:45:40;17.90;99.90
6940;DHT22;3509;48.510;9.076;2022-08-20T05:48:11;18.20;99.90
6940;DHT22;3509;48.510;9.076;2022-08-20T05:50:38;18.50;99.90
6940;DHT22;3509;48.510;9.076;2022-08-20T05:53:04;18.80;99.90
6940;DHT22;3509;48.510;9.076;2022-08-20T05:55:30;19.00;99.90
6940;DHT22;3509;48.510;9.076;2022-08-20T05:58:01;19.30;99.90
6940;DHT22;3509;48.510;9.076;2022-08-20T06:00:28;19.60;99.90
6940;DHT22;3509;48.510;9.076;2022-08-20T06:02:54;19.80;99.90
6940;DHT22;3509;48.510;9.076;2022-08-20T06:05:39;20.10;99.90
6940;DHT22;3509;48.510;9.076;2022-08-20T06:08:06;20.40;99.90
6940;DHT22;3509;48.510;9.076;2022-08-20T06:10:32;20.80;99.90
6940;DHT22;3509;48.510;9.076;2022-08-20T06:12:58;21.60;99.90
6940;DHT22;3509;48.510;9.076;2022-08-20T06:15:24;22.30;99.90
6940;DHT22;3509;48.510;9.076;2022-08-20T06:17:50;22.50;99.90
6940;DHT22;3509;48.510;9.076;2022-08-20T06:20:16;22.50;99.90
6940;DHT22;3509;48.510;9.076;2022-08-20T06:22:41;22.20;99.90
6940;DHT22;3509;48.510;9.076;2022-08-20T06:25:07;22.30;99.90
6940;DHT22;3509;48.510;9.076;2022-08-20T06:27:37;22.50;99.90
6940;DHT22;3509;48.510;9.076;2022-08-20T06:30:04;22.30;99.90
6940;DHT22;3509;48.510;9.076;2022-08-20T06:32:29;22.00;99.90
6940;DHT22;3509;48.510;9.076;2022-08-20T06:34:55;21.60;99.90
6940;DHT22;3509;48.510;9.076;2022-08-20T06:37:25;21.40;99.90
6940;DHT22;3509;48.510;9.076;2022-08-20T06:39:52;21.20;99.90
6940;DHT22;3509;48.510;9.076;2022-08-20T06:42:19;21.10;99.90
6940;DHT22;3509;48.510;9.076;2022-08-20T06:44:48;21.00;99.90
6940;DHT22;3509;48.510;9.076;2022-08-20T06:47:19;20.90;99.90
6940;DHT22;3509;48.510;9.076;2022-08-20T06:49:45;20.80;99.90
6940;DHT22;3509;48.510;9.076;2022-08-20T06:52:12;20.70;99.90
6940;DHT22;3509;48.510;9.076;2022-08-20T06:54:40;20.70;99.90
6940;DHT22;3509;48.510;9.076;2022-08-20T06:57:05;20.60;99.90
6940;DHT22;3509;48.510;9.076;2022-08-20T06:59:31;20.60;99.90
6940;DHT22;3509;48.510;9.076;2022-08-20T07:01:57;20.60;99.90
6940;DHT22;3509;48.510;9.076;2022-08-20T07:04:26;20.50;99.90
6940;DHT22;3509;48.510;9.076;2022-08-20T07:06:53;20.50;99.90
6940;DHT22;3509;48.510;9.076;2022-08-20T07:09:19;20.50;99.90
6940;DHT22;3509;48.510;9.076;2022-08-20T07:11:46;20.60;99.90
6940;DHT22;3509;48.510;9.076;2022-08-20T07:14:12;20.60;99.90
6940;DHT22;3509;48.510;9.076;2022-08-20T07:16:38;20.70;99.90
6940;DHT22;3509;48.510;9.076;2022-08-20T07:19:05;20.70;99.90
6940;DHT22;3509;48.510;9.076;2022-08-20T07:21:30;20.60;99.90
6940;DHT22;3509;48.510;9.076;2022-08-20T07:23:56;20.80;99.90
6940;DHT22;3509;48.510;9.076;2022-08-20T07:26:22;20.80;99.90
6940;DHT22;3509;48.510;9.076;2022-08-20T07:28:49;20.90;99.90
6940;DHT22;3509;48.510;9.076;2022-08-20T07:31:15;21.10;99.90
6940;DHT22;3509;48.510;9.076;2022-08-20T07:33:59;21.30;99.90
6940;DHT22;3509;48.510;9.076;2022-08-20T07:36:25;21.40;99.90
6940;DHT22;3509;48.510;9.076;2022-08-20T07:38:51;21.50;99.90
6940;DHT22;3509;48.510;9.076;2022-08-20T07:41:18;21.60;99.90
6940;DHT22;3509;48.510;9.076;2022-08-20T07:43:45;21.70;99.90
6940;DHT22;3509;48.510;9.076;2022-08-20T07:46:16;21.50;99.90
6940;DHT22;3509;48.510;9.076;2022-08-20T07:48:44;21.40;99.90
6940;DHT22;3509;48.510;9.076;2022-08-20T07:51:12;21.20;99.90
6940;DHT22;3509;48.510;9.076;2022-08-20T07:53:39;21.00;99.90
6940;DHT22;3509;48.510;9.076;2022-08-20T07:56:07;20.80;99.90
6940;DHT22;3509;48.510;9.076;2022-08-20T07:58:35;20.80;99.90
6940;DHT22;3509;48.510;9.076;2022-08-20T08:01:03;20.60;99.90
6940;DHT22;3509;48.510;9.076;2022-08-20T08:03:29;20.50;99.90
6940;DHT22;3509;48.510;9.076;2022-08-20T08:05:55;20.40;99.90
6940;DHT22;3509;48.510;9.076;2022-08-20T08:08:24;20.40;99.90
6940;DHT22;3509;48.510;9.076;2022-08-20T08:10:54;20.30;99.90
6940;DHT22;3509;48.510;9.076;2022-08-20T08:13:22;20.30;99.90
6940;DHT22;3509;48.510;9.076;2022-08-20T08:15:53;20.30;99.90
6940;DHT22;3509;48.510;9.076;2022-08-20T08:18:24;20.50;99.90
6940;DHT22;3509;48.510;9.076;2022-08-20T08:20:52;20.60;99.90
6940;DHT22;3509;48.510;9.076;2022-08-20T08:23:20;20.70;99.90
6940;DHT22;3509;48.510;9.076;2022-08-20T08:25:47;20.80;99.90
6940;DHT22;3509;48.510;9.076;2022-08-20T08:28:13;21.10;99.90
6940;DHT22;3509;48.510;9.076;2022-08-20T08:30:41;21.50;99.90
6940;DHT22;3509;48.510;9.076;2022-08-20T08:33:16;22.00;99.90
6940;DHT22;3509;48.510;9.076;2022-08-20T08:38:24;23.40;99.90
6940;DHT22;3509;48.510;9.076;2022-08-20T08:40:53;23.70;99.90
6940;DHT22;3509;48.510;9.076;2022-08-20T08:43:22;23.80;99.90
6940;DHT22;3509;48.510;9.076;2022-08-20T08:46:10;24.30;99.90
6940;DHT22;3509;48.510;9.076;2022-08-20T08:48:42;24.60;99.90
6940;DHT22;3509;48.510;9.076;2022-08-20T08:51:10;25.20;99.90
6940;DHT22;3509;48.510;9.076;2022-08-20T08:53:48;26.40;99.90
6940;DHT22;3509;48.510;9.076;2022-08-20T08:56:15;28.80;94.90
6940;DHT22;3509;48.510;9.076;2022-08-20T08:58:41;29.10;91.40
6940;DHT22;3509;48.510;9.076;2022-08-20T09:01:14;30.70;87.10
6940;DHT22;3509;48.510;9.076;2022-08-20T09:03:44;31.10;82.40
6940;DHT22;3509;48.510;9.076;2022-08-20T09:06:17;31.20;75.40
6940;DHT22;3509;48.510;9.076;2022-08-20T09:08:48;30.70;75.90
6940;DHT22;3509;48.510;9.076;2022-08-20T09:11:16;29.60;77.70
6940;DHT22;3509;48.510;9.076;2022-08-20T09:13:42;29.30;77.40
6940;DHT22;3509;48.510;9.076;2022-08-20T09:16:10;28.70;79.50
6940;DHT22;3509;48.510;9.076;2022-08-20T09:18:35;28.30;82.90
6940;DHT22;3509;48.510;9.076;2022-08-20T09:21:01;28.70;83.10
6940;DHT22;3509;48.510;9.076;2022-08-20T09:23:27;28.90;78.80
6940;DHT22;3509;48.510;9.076;2022-08-20T09:25:53;28.90;80.80
6940;DHT22;3509;48.510;9.076;2022-08-20T09:28:18;28.80;81.80
6940;DHT22;3509;48.510;9.076;2022-08-20T09:30:44;28.60;81.80
6940;DHT22;3509;48.510;9.076;2022-08-20T09:33:10;28.50;81.20
6940;DHT22;3509;48.510;9.076;2022-08-20T09:35:36;28.50;78.60
6940;DHT22;3509;48.510;9.076;2022-08-20T09:38:02;28.40;80.20
6940;DHT22;3509;48.510;9.076;2022-08-20T09:40:28;28.30;82.70
6940;DHT22;3509;48.510;9.076;2022-08-20T09:42:54;28.70;80.70
6940;DHT22;3509;48.510;9.076;2022-08-20T09:45:20;29.20;78.40
6940;DHT22;3509;48.510;9.076;2022-08-20T09:47:46;29.90;76.20
6940;DHT22;3509;48.510;9.076;2022-08-20T09:50:11;29.90;77.10
6940;DHT22;3509;48.510;9.076;2022-08-20T09:52:40;29.90;74.00
6940;DHT22;3509;48.510;9.076;2022-08-20T09:55:38;29.50;76.60
6940;DHT22;3509;48.510;9.076;2022-08-20T09:58:18;28.70;75.80
6940;DHT22;3509;48.510;9.076;2022-08-20T10:00:46;28.10;79.40
6940;DHT22;3509;48.510;9.076;2022-08-20T10:03:11;27.50;80.40
6940;DHT22;3509;48.510;9.076;2022-08-20T10:05:37;27.00;85.60
6940;DHT22;3509;48.510;9.076;2022-08-20T10:08:07;26.40;86.70
6940;DHT22;3509;48.510;9.076;2022-08-20T10:10:34;25.20;91.70
6940;DHT22;3509;48.510;9.076;2022-08-20T10:13:00;24.10;99.90
6940;DHT22;3509;48.510;9.076;2022-08-20T10:15:27;22.90;99.90
6940;DHT22;3509;48.510;9.076;2022-08-20T10:17:53;21.80;99.90
6940;DHT22;3509;48.510;9.076;2022-08-20T10:20:19;21.20;99.90
6940;DHT22;3509;48.510;9.076;2022-08-20T10:22:45;20.70;99.90
6940;DHT22;3509;48.510;9.076;2022-08-20T10:25:11;20.20;99.90
6940;DHT22;3509;48.510;9.076;2022-08-20T10:27:37;19.90;99.90
6940;DHT22;3509;48.510;9.076;2022-08-20T10:30:04;19.70;99.90
6940;DHT22;3509;48.510;9.076;2022-08-20T10:32:30;19.60;99.90
6940;DHT22;3509;48.510;9.076;2022-08-20T10:34:57;19.60;99.90
6940;DHT22;3509;48.510;9.076;2022-08-20T10:37:24;19.70;99.90
6940;DHT22;3509;48.510;9.076;2022-08-20T10:39:50;19.70;99.90
6940;DHT22;3509;48.510;9.076;2022-08-20T10:42:16;19.80;99.90
6940;DHT22;3509;48.510;9.076;2022-08-20T10:44:42;20.00;99.90
6940;DHT22;3509;48.510;9.076;2022-08-20T10:49:48;20.50;99.90
6940;DHT22;3509;48.510;9.076;2022-08-20T10:52:15;20.80;99.90
6940;DHT22;3509;48.510;9.076;2022-08-20T10:54:40;20.90;99.90
6940;DHT22;3509;48.510;9.076;2022-08-20T10:57:40;20.90;99.90
6940;DHT22;3509;48.510;9.076;2022-08-20T10:59:59;20.80;99.90
6940;DHT22;3509;48.510;9.076;2022-08-20T11:02:26;20.60;99.90
6940;DHT22;3509;48.510;9.076;2022-08-20T11:04:52;20.20;99.90
6940;DHT22;3509;48.510;9.076;2022-08-20T11:07:31;19.90;99.90
6940;DHT22;3509;48.510;9.076;2022-08-20T11:09:57;19.70;99.90
6940;DHT22;3509;48.510;9.076;2022-08-20T11:12:24;19.30;99.90
6940;DHT22;3509;48.510;9.076;2022-08-20T11:14:51;19.10;99.90
6940;DHT22;3509;48.510;9.076;2022-08-20T11:17:22;18.90;99.90
6940;DHT22;3509;48.510;9.076;2022-08-20T11:19:48;18.70;99.90
6940;DHT22;3509;48.510;9.076;2022-08-20T11:22:15;18.60;99.90
6940;DHT22;3509;48.510;9.076;2022-08-20T11:24:40;18.60;99.90
6940;DHT22;3509;48.510;9.076;2022-08-20T11:27:07;18.50;99.90
6940;DHT22;3509;48.510;9.076;2022-08-20T11:29:37;18.50;99.90
6940;DHT22;3509;48.510;9.076;2022-08-20T11:32:04;18.50;99.90
6940;DHT22;3509;48.510;9.076;2022-08-20T11:34:30;18.40;99.90
6940;DHT22;3509;48.510;9.076;2022-08-20T11:36:56;18.40;99.90
6940;DHT22;3509;48.510;9.076;2022-08-20T11:39:23;18.50;99.90
6940;DHT22;3509;48.510;9.076;2022-08-20T11:41:49;18.50;99.90
6940;DHT22;3509;48.510;9.076;2022-08-20T11:44:14;18.50;99.90
6940;DHT22;3509;48.510;9.076;2022-08-20T11:46:40;18.50;99.90
6940;DHT22;3509;48.510;9.076;2022-08-20T11:49:06;18.50;99.90
6940;DHT22;3509;48.510;9.076;2022-08-20T11:51:31;18.60;99.90
6940;DHT22;3509;48.510;9.076;2022-08-20T11:53:57;18.60;99.90
6940;DHT22;3509;48.510;9.076;2022-08-20T11:56:23;18.60;99.90
6940;DHT22;3509;48.510;9.076;2022-08-20T11:58:49;18.70;99.90
6940;DHT22;3509;48.510;9.076;2022-08-20T12:01:14;18.80;99.90
6940;DHT22;3509;48.510;9.076;2022-08-20T12:03:40;18.80;99.90
6940;DHT22;3509;48.510;9.076;2022-08-20T12:06:06;19.00;99.90
6940;DHT22;3509;48.510;9.076;2022-08-20T12:08:32;19.00;99.90
6940;DHT22;3509;48.510;9.076;2022-08-20T12:11:00;19.10;99.90
6940;DHT22;3509;48.510;9.076;2022-08-20T12:13:28;19.20;99.90
6940;DHT22;3509;48.510;9.076;2022-08-20T12:15:54;19.40;99.90
6940;DHT22;3509;48.510;9.076;2022-08-20T12:18:20;19.60;99.90
6940;DHT22;3509;48.510;9.076;2022-08-20T12:20:46;19.70;99.90
6940;DHT22;3509;48.510;9.076;2022-08-20T12:23:12;19.90;99.90
6940;DHT22;3509;48.510;9.076;2022-08-20T12:25:37;20.10;99.90
6940;DHT22;3509;48.510;9.076;2022-08-20T12:28:03;20.20;99.90
6940;DHT22;3509;48.510;9.076;2022-08-20T12:30:30;20.30;99.90
6940;DHT22;3509;48.510;9.076;2022-08-20T12:32:56;20.40;99.90
6940;DHT22;3509;48.510;9.076;2022-08-20T12:35:23;20.40;99.90
6940;DHT22;3509;48.510;9.076;2022-08-20T12:37:49;20.50;99.90
6940;DHT22;3509;48.510;9.076;2022-08-20T12:40:27;20.60;99.90
6940;DHT22;3509;48.510;9.076;2022-08-20T12:42:53;20.70;99.90
6940;DHT22;3509;48.510;9.076;2022-08-20T12:45:19;20.90;99.90
6940;DHT22;3509;48.510;9.076;2022-08-20T12:47:46;21.20;99.90
6940;DHT22;3509;48.510;9.076;2022-08-20T12:50:18;21.40;99.90
6940;DHT22;3509;48.510;9.076;2022-08-20T12:52:45;21.80;99.90
6940;DHT22;3509;48.510;9.076;2022-08-20T12:55:13;22.00;99.90
6940;DHT22;3509;48.510;9.076;2022-08-20T12:57:41;22.00;99.90
6940;DHT22;3509;48.510;9.076;2022-08-20T13:00:19;22.00;99.90
6940;DHT22;3509;48.510;9.076;2022-08-20T13:02:47;22.20;99.90
6940;DHT22;3509;48.510;9.076;2022-08-20T13:05:14;22.40;99.90
6940;DHT22;3509;48.510;9.076;2022-08-20T13:07:41;22.60;99.90
6940;DHT22;3509;48.510;9.076;2022-08-20T13:10:09;22.90;99.90
6940;DHT22;3509;48.510;9.076;2022-08-20T13:12:35;22.90;99.90
6940;DHT22;3509;48.510;9.076;2022-08-20T13:15:01;23.00;99.90
6940;DHT22;3509;48.510;9.076;2022-08-20T13:17:27;22.80;99.90
6940;DHT22;3509;48.510;9.076;2022-08-20T13:19:52;22.90;99.90
6940;DHT22;3509;48.510;9.076;2022-08-20T13:22:18;22.80;99.90
6940;DHT22;3509;48.510;9.076;2022-08-20T13:24:44;22.80;99.90
6940;DHT22;3509;48.510;9.076;2022-08-20T13:27:13;22.60;99.90
6940;DHT22;3509;48.510;9.076;2022-08-20T13:29:49;22.60;99.90
6940;DHT22;3509;48.510;9.076;2022-08-20T13:32:15;22.50;99.90
6940;DHT22;3509;48.510;9.076;2022-08-20T13:34:41;22.70;99.90
6940;DHT22;3509;48.510;9.076;2022-08-20T13:37:21;22.80;99.90
6940;DHT22;3509;48.510;9.076;2022-08-20T13:39:48;22.90;99.90
6940;DHT22;3509;48.510;9.076;2022-08-20T13:42:15;23.00;99.90
6940;DHT22;3509;48.510;9.076;2022-08-20T13:44:40;23.10;99.90
6940;DHT22;3509;48.510;9.076;2022-08-20T13:47:23;23.30;99.90
6940;DHT22;3509;48.510;9.076;2022-08-20T13:49:55;23.60;99.90
6940;DHT22;3509;48.510;9.076;2022-08-20T13:52:21;24.00;99.90
6940;DHT22;3509;48.510;9.076;2022-08-20T13:54:47;24.10;99.90
6940;DHT22;3509;48.510;9.076;2022-08-20T13:57:14;24.10;99.90
6940;DHT22;3509;48.510;9.076;2022-08-20T13:59:43;24.40;99.90
6940;DHT22;3509;48.510;9.076;2022-08-20T14:02:10;24.50;99.90
6940;DHT22;3509;48.510;9.076;2022-08-20T14:04:37;24.40;99.90
6940;DHT22;3509;48.510;9.076;2022-08-20T14:07:15;24.30;99.90
6940;DHT22;3509;48.510;9.076;2022-08-20T14:09:43;24.30;99.90
6940;DHT22;3509;48.510;9.076;2022-08-20T14:12:10;24.00;99.90
6940;DHT22;3509;48.510;9.076;2022-08-20T14:14:36;23.60;99.90
6940;DHT22;3509;48.510;9.076;2022-08-20T14:17:16;23.60;99.90
6940;DHT22;3509;48.510;9.076;2022-08-20T14:19:43;23.50;99.90
6940;DHT22;3509;48.510;9.076;2022-08-20T14:22:09;23.40;99.90
6940;DHT22;3509;48.510;9.076;2022-08-20T14:24:35;23.30;99.90
6940;DHT22;3509;48.510;9.076;2022-08-20T14:27:04;23.40;99.90
6940;DHT22;3509;48.510;9.076;2022-08-20T14:29:35;23.50;99.90
6940;DHT22;3509;48.510;9.076;2022-08-20T14:32:02;23.50;99.90
6940;DHT22;3509;48.510;9.076;2022-08-20T14:34:29;23.60;99.90
6940;DHT22;3509;48.510;9.076;2022-08-20T14:36:55;23.50;99.90
6940;DHT22;3509;48.510;9.076;2022-08-20T14:39:23;23.60;99.90
6940;DHT22;3509;48.510;9.076;2022-08-20T14:41:49;23.70;99.90
6940;DHT22;3509;48.510;9.076;2022-08-20T14:44:15;23.70;99.90
6940;DHT22;3509;48.510;9.076;2022-08-20T14:46:41;23.70;99.90
6940;DHT22;3509;48.510;9.076;2022-08-20T14:49:06;23.80;99.90
6940;DHT22;3509;48.510;9.076;2022-08-20T14:51:32;23.90;99.90
6940;DHT22;3509;48.510;9.076;2022-08-20T14:53:58;23.90;99.90
6940;DHT22;3509;48.510;9.076;2022-08-20T14:56:23;23.80;99.90
6940;DHT22;3509;48.510;9.076;2022-08-20T14:58:49;23.70;99.90
6940;DHT22;3509;48.510;9.076;2022-08-20T15:01:15;23.70;99.90
6940;DHT22;3509;48.510;9.076;2022-08-20T15:03:41;23.70;99.90
6940;DHT22;3509;48.510;9.076;2022-08-20T15:06:06;23.60;99.90
6940;DHT22;3509;48.510;9.076;2022-08-20T15:08:32;23.60;99.90
6940;DHT22;3509;48.510;9.076;2022-08-20T15:10:58;23.60;99.90
6940;DHT22;3509;48.510;9.076;2022-08-20T15:13:23;23.60;99.90
6940;DHT22;3509;48.510;9.076;2022-08-20T15:15:53;23.50;99.90
6940;DHT22;3509;48.510;9.076;2022-08-20T15:18:19;23.50;99.90
6940;DHT22;3509;48.510;9.076;2022-08-20T15:20:48;23.50;99.90
6940;DHT22;3509;48.510;9.076;2022-08-20T15:23:14;23.50;99.90
6940;DHT22;3509;48.510;9.076;2022-08-20T15:25:40;23.40;99.90
6940;DHT22;3509;48.510;9.076;2022-08-20T15:28:08;23.50;99.90
6940;DHT22;3509;48.510;9.076;2022-08-20T15:30:34;23.30;99.90
6940;DHT22;3509;48.510;9.076;2022-08-20T15:33:00;23.40;99.90
6940;DHT22;3509;48.510;9.076;2022-08-20T15:35:27;23.40;99.90
6940;DHT22;3509;48.510;9.076;2022-08-20T15:37:54;23.50;99.90
6940;DHT22;3509;48.510;9.076;2022-08-20T15:40:22;23.50;99.90
6940;DHT22;3509;48.510;9.076;2022-08-20T15:42:47;23.40;99.90
6940;DHT22;3509;48.510;9.076;2022-08-20T15:45:14;23.30;99.90
6940;DHT22;3509;48.510;9.076;2022-08-20T15:47:54;23.30;99.90
6940;DHT22;3509;48.510;9.076;2022-08-20T15:50:43;23.10;99.90
6940;DHT22;3509;48.510;9.076;2022-08-20T15:53:32;22.90;99.90
6940;DHT22;3509;48.510;9.076;2022-08-20T16:06:50;22.30;99.90
6940;DHT22;3509;48.510;9.076;2022-08-20T16:12:35;22.50;99.90
6940;DHT22;3509;48.510;9.076;2022-08-20T16:15:06;22.70;99.90
6940;DHT22;3509;48.510;9.076;2022-08-20T16:17:39;22.80;99.90
6940;DHT22;3509;48.510;9.076;2022-08-20T16:20:12;22.80;99.90
6940;DHT22;3509;48.510;9.076;2022-08-20T16:22:44;22.80;99.90
6940;DHT22;3509;48.510;9.076;2022-08-20T16:25:11;22.80;99.90
6940;DHT22;3509;48.510;9.076;2022-08-20T16:30:47;22.80;99.90
6940;DHT22;3509;48.510;9.076;2022-08-20T16:33:39;22.70;99.90
6940;DHT22;3509;48.510;9.076;2022-08-20T16:36:33;22.60;99.90
6940;DHT22;3509;48.510;9.076;2022-08-20T16:39:04;22.40;99.90
6940;DHT22;3509;48.510;9.076;2022-08-20T16:41:39;22.10;99.90